sensor_id;sensor_type;location;lat;lon;timestamp;P1;durP1;ratioP1;P2;durP2;ratioP2
13999;SDS011;7075;53.574;10.054;2022-09-03T00:00:51;0.97;;;0.60;;
13999;SDS011;7075;53.574;10.054;2022-09-03T00:06:13;0.82;;;0.68;;
13999;SDS011;7075;53.574;10.054;2022-09-03T00:08:43;1.00;;;0.70;;
13999;SDS011;7075;53.574;10.054;2022-09-03T00:11:16;1.73;;;0.50;;
13999;SDS011;7075;53.574;10.054;2022-09-03T00:13:51;1.45;;;0.75;;
13999;SDS011;7075;53.574;10.054;2022-09-03T00:16:24;0.65;;;0.55;;
13999;SDS011;7075;53.574;10.054;2022-09-03T00:18:55;1.85;;;0.80;;
13999;SDS011;7075;53.574;10.054;2022-09-03T00:21:38;1.65;;;0.70;;
13999;SDS011;7075;53.574;10.054;2022-09-03T00:24:09;1.45;;;0.80;;
13999;SDS011;7075;53.574;10.054;2022-09-03T00:26:38;1.13;;;0.77;;
13999;SDS011;7075;53.574;10.054;2022-09-03T00:31:45;1.85;;;0.60;;
13999;SDS011;7075;53.574;10.054;2022-09-03T00:36:50;2.28;;;0.90;;
13999;SDS011;7075;53.574;10.054;2022-09-03T00:39:18;1.05;;;0.70;;
13999;SDS011;7075;53.574;10.054;2022-09-03T00:41:53;0.75;;;0.75;;
13999;SDS011;7075;53.574;10.054;2022-09-03T01:00:55;0.60;;;0.60;;
13999;SDS011;7075;53.574;10.054;2022-09-03T01:03:29;1.02;;;0.60;;
13999;SDS011;7075;53.574;10.054;2022-09-03T01:06:10;1.30;;;0.80;;
13999;SDS011;7075;53.574;10.054;2022-09-03T01:14:21;1.73;;;0.80;;
13999;SDS011;7075;53.574;10.054;2022-09-03T01:28:14;1.83;;;0.80;;
13999;SDS011;7075;53.574;10.054;2022-09-03T01:31:01;1.30;;;0.98;;
13999;SDS011;7075;53.574;10.054;2022-09-03T01:34:02;1.25;;;0.90;;
13999;SDS011;7075;53.574;10.054;2022-09-03T01:37:34;1.70;;;0.70;;
13999;SDS011;7075;53.574;10.054;2022-09-03T01:47:55;1.52;;;0.90;;
13999;SDS011;7075;53.574;10.054;2022-09-03T01:53:33;1.10;;;0.80;;
13999;SDS011;7075;53.574;10.054;2022-09-03T01:56:27;0.80;;;0.80;;
13999;SDS011;7075;53.574;10.054;2022-09-03T01:59:03;1.55;;;0.80;;
13999;SDS011;7075;53.574;10.054;2022-09-03T02:01:45;2.10;;;0.77;;
13999;SDS011;7075;53.574;10.054;2022-09-03T02:04:22;3.00;;;0.70;;
13999;SDS011;7075;53.574;10.054;2022-09-03T02:06:49;0.70;;;0.70;;
13999;SDS011;7075;53.574;10.054;2022-09-03T02:09:16;1.55;;;0.70;;
13999;SDS011;7075;53.574;10.054;2022-09-03T02:11:43;1.25;;;0.80;;
13999;SDS011;7075;53.574;10.054;2022-09-03T02:14:15;1.95;;;0.80;;
13999;SDS011;7075;53.574;10.054;2022-09-03T02:16:41;1.73;;;0.75;;
13999;SDS011;7075;53.574;10.054;2022-09-03T02:19:10;1.90;;;0.98;;
13999;SDS011;7075;53.574;10.054;2022-09-03T02:21:43;1.73;;;0.90;;
13999;SDS011;7075;53.574;10.054;2022-09-03T02:24:13;1.60;;;0.80;;
13999;SDS011;7075;53.574;10.054;2022-09-03T02:26:39;1.20;;;0.90;;
13999;SDS011;7075;53.574;10.054;2022-09-03T02:29:04;1.00;;;0.80;;
13999;SDS011;7075;53.574;10.054;2022-09-03T02:31:30;1.33;;;0.77;;
13999;SDS011;7075;53.574;10.054;2022-09-03T02:33:56;2.30;;;0.80;;
13999;SDS011;7075;53.574;10.054;2022-09-03T02:36:27;1.55;;;0.95;;
13999;SDS011;7075;53.574;10.054;2022-09-03T02:38:57;1.27;;;0.80;;
13999;SDS011;7075;53.574;10.054;2022-09-03T02:41:23;1.45;;;0.80;;
13999;SDS011;7075;53.574;10.054;2022-09-03T02:46:49;1.55;;;1.00;;
13999;SDS011;7075;53.574;10.054;2022-09-03T02:49:23;1.58;;;0.90;;
13999;SDS011;7075;53.574;10.054;2022-09-03T02:51:49;1.00;;;0.82;;
13999;SDS011;7075;53.574;10.054;2022-09-03T02:54:15;1.55;;;0.95;;
13999;SDS011;7075;53.574;10.054;2022-09-03T02:56:41;1.88;;;0.73;;
13999;SDS011;7075;53.574;10.054;2022-09-03T02:59:08;2.65;;;0.90;;
13999;SDS011;7075;53.574;10.054;2022-09-03T03:01:34;1.13;;;0.67;;
13999;SDS011;7075;53.574;10.054;2022-09-03T03:04:00;1.08;;;0.90;;
13999;SDS011;7075;53.574;10.054;2022-09-03T03:06:27;4.65;;;1.00;;
13999;SDS011;7075;53.574;10.054;2022-09-03T03:08:53;1.90;;;0.90;;
13999;SDS011;7075;53.574;10.054;2022-09-03T03:11:20;1.50;;;0.80;;
13999;SDS011;7075;53.574;10.054;2022-09-03T03:13:50;2.65;;;0.85;;
13999;SDS011;7075;53.574;10.054;2022-09-03T03:16:16;0.68;;;0.65;;
13999;SDS011;7075;53.574;10.054;2022-09-03T03:18:42;0.95;;;0.82;;
13999;SDS011;7075;53.574;10.054;2022-09-03T03:21:12;2.03;;;0.73;;
13999;SDS011;7075;53.574;10.054;2022-09-03T03:23:40;2.13;;;0.98;;
13999;SDS011;7075;53.574;10.054;2022-09-03T03:26:06;1.90;;;0.93;;
13999;SDS011;7075;53.574;10.054;2022-09-03T03:28:34;3.70;;;1.00;;
13999;SDS011;7075;53.574;10.054;2022-09-03T03:31:10;1.20;;;0.90;;
13999;SDS011;7075;53.574;10.054;2022-09-03T03:33:38;0.75;;;0.75;;
13999;SDS011;7075;53.574;10.054;2022-09-03T03:38:32;0.73;;;0.68;;
13999;SDS011;7075;53.574;10.054;2022-09-03T03:40:58;1.48;;;0.70;;
13999;SDS011;7075;53.574;10.054;2022-09-03T03:43:24;1.20;;;0.75;;
13999;SDS011;7075;53.574;10.054;2022-09-03T03:45:56;1.63;;;1.00;;
13999;SDS011;7075;53.574;10.054;2022-09-03T03:48:23;1.70;;;1.00;;
13999;SDS011;7075;53.574;10.054;2022-09-03T03:54:11;1.98;;;1.00;;
13999;SDS011;7075;53.574;10.054;2022-09-03T03:56:37;2.08;;;0.80;;
13999;SDS011;7075;53.574;10.054;2022-09-03T03:59:03;1.67;;;0.90;;
13999;SDS011;7075;53.574;10.054;2022-09-03T04:01:29;1.70;;;0.80;;
13999;SDS011;7075;53.574;10.054;2022-09-03T04:03:55;1.77;;;0.80;;
13999;SDS011;7075;53.574;10.054;2022-09-03T04:06:22;1.10;;;0.82;;
13999;SDS011;7075;53.574;10.054;2022-09-03T04:08:48;1.23;;;0.90;;
13999;SDS011;7075;53.574;10.054;2022-09-03T04:11:15;1.80;;;0.90;;
13999;SDS011;7075;53.574;10.054;2022-09-03T04:13:43;0.80;;;0.65;;
13999;SDS011;7075;53.574;10.054;2022-09-03T04:16:21;1.13;;;0.90;;
13999;SDS011;7075;53.574;10.054;2022-09-03T04:18:48;1.13;;;0.90;;
13999;SDS011;7075;53.574;10.054;2022-09-03T04:21:16;2.55;;;0.98;;
13999;SDS011;7075;53.574;10.054;2022-09-03T04:23:46;1.30;;;0.90;;
13999;SDS011;7075;53.574;10.054;2022-09-03T04:26:16;1.00;;;0.88;;
13999;SDS011;7075;53.574;10.054;2022-09-03T04:28:46;2.30;;;0.90;;
13999;SDS011;7075;53.574;10.054;2022-09-03T04:31:13;1.20;;;0.80;;
13999;SDS011;7075;53.574;10.054;2022-09-03T04:33:41;1.10;;;0.80;;
13999;SDS011;7075;53.574;10.054;2022-09-03T04:36:08;1.60;;;0.90;;
13999;SDS011;7075;53.574;10.054;2022-09-03T04:38:51;2.40;;;1.00;;
13999;SDS011;7075;53.574;10.054;2022-09-03T04:41:19;1.33;;;0.80;;
13999;SDS011;7075;53.574;10.054;2022-09-03T04:43:49;1.23;;;0.73;;
13999;SDS011;7075;53.574;10.054;2022-09-03T04:46:17;2.80;;;1.10;;
13999;SDS011;7075;53.574;10.054;2022-09-03T04:48:43;1.08;;;0.80;;
13999;SDS011;7075;53.574;10.054;2022-09-03T04:51:13;1.40;;;1.05;;
13999;SDS011;7075;53.574;10.054;2022-09-03T04:53:42;1.70;;;0.77;;
13999;SDS011;7075;53.574;10.054;2022-09-03T04:58:43;2.15;;;0.98;;
13999;SDS011;7075;53.574;10.054;2022-09-03T05:01:25;1.73;;;1.05;;
13999;SDS011;7075;53.574;10.054;2022-09-03T05:04:12;1.40;;;0.80;;
13999;SDS011;7075;53.574;10.054;2022-09-03T05:06:37;1.85;;;1.10;;
13999;SDS011;7075;53.574;10.054;2022-09-03T05:09:03;2.03;;;0.80;;
13999;SDS011;7075;53.574;10.054;2022-09-03T05:11:29;1.40;;;0.70;;
13999;SDS011;7075;53.574;10.054;2022-09-03T05:13:56;1.30;;;1.00;;
13999;SDS011;7075;53.574;10.054;2022-09-03T05:16:24;1.97;;;1.30;;
13999;SDS011;7075;53.574;10.054;2022-09-03T05:19:04;1.50;;;0.82;;
13999;SDS011;7075;53.574;10.054;2022-09-03T05:21:40;1.90;;;0.90;;
13999;SDS011;7075;53.574;10.054;2022-09-03T05:24:18;2.00;;;0.80;;
13999;SDS011;7075;53.574;10.054;2022-09-03T05:26:44;1.70;;;1.00;;
13999;SDS011;7075;53.574;10.054;2022-09-03T05:29:10;1.50;;;0.90;;
13999;SDS011;7075;53.574;10.054;2022-09-03T05:31:36;1.10;;;0.90;;
13999;SDS011;7075;53.574;10.054;2022-09-03T05:34:21;1.90;;;0.90;;
13999;SDS011;7075;53.574;10.054;2022-09-03T05:36:46;1.35;;;0.90;;
13999;SDS011;7075;53.574;10.054;2022-09-03T05:39:13;1.75;;;0.90;;
13999;SDS011;7075;53.574;10.054;2022-09-03T05:41:39;1.70;;;1.00;;
13999;SDS011;7075;53.574;10.054;2022-09-03T05:44:14;2.08;;;1.10;;
13999;SDS011;7075;53.574;10.054;2022-09-03T05:46:40;2.13;;;0.98;;
13999;SDS011;7075;53.574;10.054;2022-09-03T05:49:24;0.73;;;0.70;;
13999;SDS011;7075;53.574;10.054;2022-09-03T05:54:44;2.13;;;0.90;;
13999;SDS011;7075;53.574;10.054;2022-09-03T05:57:15;0.90;;;0.80;;
13999;SDS011;7075;53.574;10.054;2022-09-03T06:02:53;1.20;;;0.80;;
13999;SDS011;7075;53.574;10.054;2022-09-03T06:05:19;2.67;;;1.00;;
13999;SDS011;7075;53.574;10.054;2022-09-03T06:07:45;2.47;;;1.00;;
13999;SDS011;7075;53.574;10.054;2022-09-03T06:10:14;2.00;;;0.93;;
13999;SDS011;7075;53.574;10.054;2022-09-03T06:12:41;1.65;;;0.90;;
13999;SDS011;7075;53.574;10.054;2022-09-03T06:15:14;2.58;;;0.70;;
13999;SDS011;7075;53.574;10.054;2022-09-03T06:17:40;2.33;;;0.80;;
13999;SDS011;7075;53.574;10.054;2022-09-03T06:20:06;1.95;;;0.90;;
13999;SDS011;7075;53.574;10.054;2022-09-03T06:22:33;2.67;;;0.98;;
13999;SDS011;7075;53.574;10.054;2022-09-03T06:24:59;1.37;;;0.70;;
13999;SDS011;7075;53.574;10.054;2022-09-03T06:27:24;1.80;;;0.97;;
13999;SDS011;7075;53.574;10.054;2022-09-03T06:29:52;2.10;;;1.10;;
13999;SDS011;7075;53.574;10.054;2022-09-03T06:32:18;1.27;;;0.93;;
13999;SDS011;7075;53.574;10.054;2022-09-03T06:34:44;1.30;;;0.90;;
13999;SDS011;7075;53.574;10.054;2022-09-03T06:37:10;1.65;;;0.90;;
13999;SDS011;7075;53.574;10.054;2022-09-03T06:39:35;1.70;;;0.90;;
13999;SDS011;7075;53.574;10.054;2022-09-03T06:42:07;0.70;;;0.70;;
13999;SDS011;7075;53.574;10.054;2022-09-03T06:44:33;1.42;;;0.80;;
13999;SDS011;7075;53.574;10.054;2022-09-03T06:46:59;2.08;;;1.15;;
13999;SDS011;7075;53.574;10.054;2022-09-03T06:49:25;1.38;;;0.90;;
13999;SDS011;7075;53.574;10.054;2022-09-03T06:51:51;2.72;;;0.90;;
13999;SDS011;7075;53.574;10.054;2022-09-03T06:54:17;1.05;;;0.75;;
13999;SDS011;7075;53.574;10.054;2022-09-03T06:56:43;2.85;;;1.02;;
13999;SDS011;7075;53.574;10.054;2022-09-03T06:59:09;1.13;;;0.80;;
13999;SDS011;7075;53.574;10.054;2022-09-03T07:01:36;2.03;;;0.80;;
13999;SDS011;7075;53.574;10.054;2022-09-03T07:04:05;1.88;;;1.10;;
13999;SDS011;7075;53.574;10.054;2022-09-03T07:06:33;1.60;;;0.90;;
13999;SDS011;7075;53.574;10.054;2022-09-03T07:09:04;1.88;;;1.00;;
13999;SDS011;7075;53.574;10.054;2022-09-03T07:11:30;1.58;;;0.88;;
13999;SDS011;7075;53.574;10.054;2022-09-03T07:13:59;0.90;;;0.80;;
13999;SDS011;7075;53.574;10.054;2022-09-03T07:16:27;1.10;;;0.90;;
13999;SDS011;7075;53.574;10.054;2022-09-03T07:18:58;1.23;;;0.95;;
13999;SDS011;7075;53.574;10.054;2022-09-03T07:21:25;2.15;;;0.93;;
13999;SDS011;7075;53.574;10.054;2022-09-03T07:23:53;2.47;;;0.98;;
13999;SDS011;7075;53.574;10.054;2022-09-03T07:26:21;1.02;;;0.90;;
13999;SDS011;7075;53.574;10.054;2022-09-03T07:28:49;1.38;;;0.93;;
13999;SDS011;7075;53.574;10.054;2022-09-03T07:31:19;1.45;;;1.00;;
13999;SDS011;7075;53.574;10.054;2022-09-03T07:33:49;2.67;;;1.00;;
13999;SDS011;7075;53.574;10.054;2022-09-03T07:36:22;2.45;;;1.10;;
13999;SDS011;7075;53.574;10.054;2022-09-03T07:38:53;1.30;;;0.80;;
13999;SDS011;7075;53.574;10.054;2022-09-03T07:41:19;1.50;;;0.70;;
13999;SDS011;7075;53.574;10.054;2022-09-03T07:43:47;2.80;;;0.90;;
13999;SDS011;7075;53.574;10.054;2022-09-03T07:46:17;3.08;;;1.20;;
13999;SDS011;7075;53.574;10.054;2022-09-03T07:48:54;2.25;;;1.00;;
13999;SDS011;7075;53.574;10.054;2022-09-03T07:58:05;1.80;;;1.00;;
13999;SDS011;7075;53.574;10.054;2022-09-03T08:00:31;1.70;;;1.00;;
13999;SDS011;7075;53.574;10.054;2022-09-03T08:02:58;1.95;;;0.93;;
13999;SDS011;7075;53.574;10.054;2022-09-03T08:05:33;1.38;;;0.82;;
13999;SDS011;7075;53.574;10.054;2022-09-03T08:08:01;1.83;;;1.00;;
13999;SDS011;7075;53.574;10.054;2022-09-03T08:10:27;1.67;;;0.90;;
13999;SDS011;7075;53.574;10.054;2022-09-03T08:12:56;1.58;;;0.90;;
13999;SDS011;7075;53.574;10.054;2022-09-03T08:15:23;1.60;;;1.00;;
13999;SDS011;7075;53.574;10.054;2022-09-03T08:17:49;2.10;;;0.93;;
13999;SDS011;7075;53.574;10.054;2022-09-03T08:20:15;2.77;;;1.00;;
13999;SDS011;7075;53.574;10.054;2022-09-03T08:22:40;2.88;;;0.93;;
13999;SDS011;7075;53.574;10.054;2022-09-03T08:25:06;1.17;;;0.82;;
13999;SDS011;7075;53.574;10.054;2022-09-03T08:27:32;1.10;;;1.00;;
13999;SDS011;7075;53.574;10.054;2022-09-03T08:29:59;1.42;;;0.90;;
13999;SDS011;7075;53.574;10.054;2022-09-03T08:32:24;1.95;;;0.90;;
13999;SDS011;7075;53.574;10.054;2022-09-03T08:34:50;1.15;;;1.00;;
13999;SDS011;7075;53.574;10.054;2022-09-03T08:37:16;2.40;;;1.07;;
13999;SDS011;7075;53.574;10.054;2022-09-03T08:39:43;1.52;;;0.93;;
13999;SDS011;7075;53.574;10.054;2022-09-03T08:42:12;1.50;;;0.90;;
13999;SDS011;7075;53.574;10.054;2022-09-03T08:44:55;1.10;;;0.90;;
13999;SDS011;7075;53.574;10.054;2022-09-03T08:50:24;1.75;;;1.10;;
13999;SDS011;7075;53.574;10.054;2022-09-03T08:52:54;2.25;;;0.80;;
13999;SDS011;7075;53.574;10.054;2022-09-03T08:55:27;1.10;;;0.80;;
13999;SDS011;7075;53.574;10.054;2022-09-03T09:11:47;1.33;;;1.00;;
13999;SDS011;7075;53.574;10.054;2022-09-03T09:25:23;2.20;;;1.00;;
13999;SDS011;7075;53.574;10.054;2022-09-03T09:28:00;2.65;;;1.00;;
13999;SDS011;7075;53.574;10.054;2022-09-03T09:30:28;2.70;;;1.10;;
13999;SDS011;7075;53.574;10.054;2022-09-03T09:32:56;1.40;;;1.00;;
13999;SDS011;7075;53.574;10.054;2022-09-03T09:35:22;2.40;;;1.00;;
13999;SDS011;7075;53.574;10.054;2022-09-03T09:37:52;2.00;;;0.90;;
13999;SDS011;7075;53.574;10.054;2022-09-03T09:40:27;1.52;;;1.00;;
13999;SDS011;7075;53.574;10.054;2022-09-03T09:45:35;1.50;;;0.80;;
13999;SDS011;7075;53.574;10.054;2022-09-03T09:48:08;1.80;;;0.80;;
13999;SDS011;7075;53.574;10.054;2022-09-03T09:54:11;2.35;;;0.90;;
13999;SDS011;7075;53.574;10.054;2022-09-03T09:56:45;2.20;;;1.00;;
13999;SDS011;7075;53.574;10.054;2022-09-03T09:59:12;1.20;;;0.70;;
13999;SDS011;7075;53.574;10.054;2022-09-03T10:01:40;3.30;;;0.90;;
13999;SDS011;7075;53.574;10.054;2022-09-03T10:04:09;1.02;;;0.90;;
13999;SDS011;7075;53.574;10.054;2022-09-03T10:06:37;3.55;;;1.00;;
13999;SDS011;7075;53.574;10.054;2022-09-03T10:09:20;2.17;;;1.03;;
13999;SDS011;7075;53.574;10.054;2022-09-03T10:14:40;2.17;;;1.00;;
13999;SDS011;7075;53.574;10.054;2022-09-03T10:20:33;2.38;;;0.80;;
13999;SDS011;7075;53.574;10.054;2022-09-03T10:23:21;2.27;;;0.90;;
13999;SDS011;7075;53.574;10.054;2022-09-03T10:26:01;3.40;;;0.90;;
13999;SDS011;7075;53.574;10.054;2022-09-03T10:28:37;1.42;;;0.90;;
13999;SDS011;7075;53.574;10.054;2022-09-03T10:34:15;1.88;;;1.30;;
13999;SDS011;7075;53.574;10.054;2022-09-03T10:37:01;1.50;;;0.90;;
13999;SDS011;7075;53.574;10.054;2022-09-03T10:39:39;1.70;;;1.10;;
13999;SDS011;7075;53.574;10.054;2022-09-03T10:42:17;4.72;;;1.27;;
13999;SDS011;7075;53.574;10.054;2022-09-03T10:45:12;4.45;;;1.15;;
13999;SDS011;7075;53.574;10.054;2022-09-03T10:50:47;4.65;;;1.23;;
13999;SDS011;7075;53.574;10.054;2022-09-03T10:56:14;2.22;;;1.10;;
13999;SDS011;7075;53.574;10.054;2022-09-03T10:58:47;2.75;;;1.20;;
13999;SDS011;7075;53.574;10.054;2022-09-03T11:01:48;2.83;;;1.10;;
13999;SDS011;7075;53.574;10.054;2022-09-03T11:07:19;5.68;;;1.30;;
13999;SDS011;7075;53.574;10.054;2022-09-03T11:09:56;3.03;;;1.03;;
13999;SDS011;7075;53.574;10.054;2022-09-03T11:12:31;1.20;;;0.90;;
13999;SDS011;7075;53.574;10.054;2022-09-03T11:15:48;5.00;;;1.25;;
13999;SDS011;7075;53.574;10.054;2022-09-03T11:18:00;4.57;;;1.02;;
13999;SDS011;7075;53.574;10.054;2022-09-03T11:20:27;3.10;;;1.15;;
13999;SDS011;7075;53.574;10.054;2022-09-03T11:22:55;4.03;;;1.10;;
13999;SDS011;7075;53.574;10.054;2022-09-03T11:25:26;7.00;;;1.80;;
13999;SDS011;7075;53.574;10.054;2022-09-03T11:30:47;3.97;;;1.65;;
13999;SDS011;7075;53.574;10.054;2022-09-03T11:33:29;7.30;;;1.60;;
13999;SDS011;7075;53.574;10.054;2022-09-03T11:35:58;4.40;;;1.70;;
13999;SDS011;7075;53.574;10.054;2022-09-03T11:38:26;3.60;;;1.60;;
13999;SDS011;7075;53.574;10.054;2022-09-03T11:41:00;3.13;;;1.30;;
13999;SDS011;7075;53.574;10.054;2022-09-03T11:43:50;5.00;;;1.00;;
13999;SDS011;7075;53.574;10.054;2022-09-03T11:48:49;2.50;;;1.25;;
13999;SDS011;7075;53.574;10.054;2022-09-03T11:51:35;3.45;;;0.88;;
13999;SDS011;7075;53.574;10.054;2022-09-03T11:54:03;3.45;;;1.27;;
13999;SDS011;7075;53.574;10.054;2022-09-03T11:56:44;2.25;;;0.85;;
13999;SDS011;7075;53.574;10.054;2022-09-03T12:01:42;2.80;;;1.00;;
13999;SDS011;7075;53.574;10.054;2022-09-03T12:04:18;1.67;;;0.80;;
13999;SDS011;7075;53.574;10.054;2022-09-03T12:07:05;3.88;;;1.00;;
13999;SDS011;7075;53.574;10.054;2022-09-03T12:12:41;3.92;;;2.28;;
13999;SDS011;7075;53.574;10.054;2022-09-03T12:18:08;2.60;;;1.10;;
13999;SDS011;7075;53.574;10.054;2022-09-03T12:26:07;2.10;;;1.05;;
13999;SDS011;7075;53.574;10.054;2022-09-03T12:28:39;1.33;;;1.00;;
13999;SDS011;7075;53.574;10.054;2022-09-03T12:31:07;2.00;;;1.00;;
13999;SDS011;7075;53.574;10.054;2022-09-03T12:33:45;2.90;;;1.10;;
13999;SDS011;7075;53.574;10.054;2022-09-03T12:36:12;2.70;;;1.47;;
13999;SDS011;7075;53.574;10.054;2022-09-03T12:38:38;1.40;;;1.00;;
13999;SDS011;7075;53.574;10.054;2022-09-03T12:41:18;3.15;;;1.30;;
13999;SDS011;7075;53.574;10.054;2022-09-03T12:43:50;2.40;;;0.90;;
13999;SDS011;7075;53.574;10.054;2022-09-03T12:46:17;1.70;;;0.80;;
13999;SDS011;7075;53.574;10.054;2022-09-03T12:48:59;1.73;;;1.30;;
13999;SDS011;7075;53.574;10.054;2022-09-03T12:51:36;2.70;;;1.90;;
13999;SDS011;7075;53.574;10.054;2022-09-03T12:54:04;3.95;;;1.70;;
13999;SDS011;7075;53.574;10.054;2022-09-03T12:56:38;3.40;;;1.20;;
13999;SDS011;7075;53.574;10.054;2022-09-03T12:59:11;1.10;;;1.00;;
13999;SDS011;7075;53.574;10.054;2022-09-03T13:01:45;1.33;;;0.98;;
13999;SDS011;7075;53.574;10.054;2022-09-03T13:04:20;3.40;;;1.35;;
13999;SDS011;7075;53.574;10.054;2022-09-03T13:07:00;2.75;;;1.20;;
13999;SDS011;7075;53.574;10.054;2022-09-03T13:09:29;4.07;;;2.10;;
13999;SDS011;7075;53.574;10.054;2022-09-03T13:11:58;2.50;;;1.80;;
13999;SDS011;7075;53.574;10.054;2022-09-03T13:14:25;2.05;;;1.20;;
13999;SDS011;7075;53.574;10.054;2022-09-03T13:17:09;2.00;;;1.00;;
13999;SDS011;7075;53.574;10.054;2022-09-03T13:19:57;2.05;;;0.90;;
13999;SDS011;7075;53.574;10.054;2022-09-03T13:22:33;1.25;;;0.90;;
13999;SDS011;7075;53.574;10.054;2022-09-03T13:30:53;2.22;;;1.35;;
13999;SDS011;7075;53.574;10.054;2022-09-03T13:33:43;3.97;;;1.65;;
13999;SDS011;7075;53.574;10.054;2022-09-03T13:36:15;2.20;;;1.65;;
13999;SDS011;7075;53.574;10.054;2022-09-03T13:41:28;3.40;;;1.33;;
13999;SDS011;7075;53.574;10.054;2022-09-03T13:44:40;2.10;;;1.00;;
13999;SDS011;7075;53.574;10.054;2022-09-03T13:52:42;1.90;;;1.10;;
13999;SDS011;7075;53.574;10.054;2022-09-03T13:55:42;1.20;;;1.00;;
13999;SDS011;7075;53.574;10.054;2022-09-03T13:58:19;2.10;;;1.20;;
13999;SDS011;7075;53.574;10.054;2022-09-03T14:03:46;2.72;;;1.73;;
13999;SDS011;7075;53.574;10.054;2022-09-03T14:25:02;1.33;;;1.00;;
13999;SDS011;7075;53.574;10.054;2022-09-03T14:27:35;1.77;;;1.30;;
13999;SDS011;7075;53.574;10.054;2022-09-03T14:30:05;2.72;;;1.23;;
13999;SDS011;7075;53.574;10.054;2022-09-03T14:33:17;6.60;;;2.90;;
13999;SDS011;7075;53.574;10.054;2022-09-03T14:38:26;2.33;;;1.67;;
13999;SDS011;7075;53.574;10.054;2022-09-03T14:57:54;1.47;;;1.07;;
13999;SDS011;7075;53.574;10.054;2022-09-03T15:04:06;4.50;;;2.00;;
13999;SDS011;7075;53.574;10.054;2022-09-03T15:11:14;3.95;;;1.35;;
13999;SDS011;7075;53.574;10.054;2022-09-03T15:13:45;3.63;;;1.02;;
13999;SDS011;7075;53.574;10.054;2022-09-03T15:30:41;2.90;;;1.50;;
13999;SDS011;7075;53.574;10.054;2022-09-03T15:33:31;4.55;;;1.40;;
13999;SDS011;7075;53.574;10.054;2022-09-03T15:36:10;2.42;;;1.35;;
13999;SDS011;7075;53.574;10.054;2022-09-03T15:38:47;4.70;;;1.10;;
13999;SDS011;7075;53.574;10.054;2022-09-03T15:41:43;3.53;;;1.50;;
13999;SDS011;7075;53.574;10.054;2022-09-03T15:44:15;5.53;;;1.35;;
13999;SDS011;7075;53.574;10.054;2022-09-03T15:49:19;6.47;;;2.03;;
13999;SDS011;7075;53.574;10.054;2022-09-03T15:52:07;3.67;;;2.00;;
13999;SDS011;7075;53.574;10.054;2022-09-03T15:54:59;2.97;;;2.40;;
13999;SDS011;7075;53.574;10.054;2022-09-03T15:57:55;3.33;;;3.00;;
13999;SDS011;7075;53.574;10.054;2022-09-03T16:03:10;5.03;;;2.70;;
13999;SDS011;7075;53.574;10.054;2022-09-03T16:08:22;1.77;;;1.17;;
13999;SDS011;7075;53.574;10.054;2022-09-03T16:17:12;9.27;;;7.47;;
13999;SDS011;7075;53.574;10.054;2022-09-03T16:19:23;9.20;;;7.80;;
13999;SDS011;7075;53.574;10.054;2022-09-03T16:21:53;35.03;;;31.38;;
13999;SDS011;7075;53.574;10.054;2022-09-03T16:27:24;23.73;;;20.50;;
13999;SDS011;7075;53.574;10.054;2022-09-03T16:29:56;36.83;;;32.30;;
13999;SDS011;7075;53.574;10.054;2022-09-03T16:35:23;7.65;;;5.57;;
13999;SDS011;7075;53.574;10.054;2022-09-03T16:51:39;16.73;;;15.03;;
13999;SDS011;7075;53.574;10.054;2022-09-03T17:05:44;5.75;;;3.75;;
13999;SDS011;7075;53.574;10.054;2022-09-03T17:10:48;4.05;;;2.28;;
13999;SDS011;7075;53.574;10.054;2022-09-03T17:16:29;5.07;;;2.53;;
13999;SDS011;7075;53.574;10.054;2022-09-03T17:22:04;4.70;;;2.25;;
13999;SDS011;7075;53.574;10.054;2022-09-03T17:35:46;3.25;;;1.50;;
13999;SDS011;7075;53.574;10.054;2022-09-03T17:41:25;4.88;;;1.60;;
13999;SDS011;7075;53.574;10.054;2022-09-03T17:46:48;3.10;;;1.47;;
13999;SDS011;7075;53.574;10.054;2022-09-03T17:49:29;2.15;;;1.15;;
13999;SDS011;7075;53.574;10.054;2022-09-03T17:52:01;5.07;;;1.40;;
13999;SDS011;7075;53.574;10.054;2022-09-03T17:54:46;2.67;;;1.10;;
13999;SDS011;7075;53.574;10.054;2022-09-03T17:57:21;2.85;;;1.20;;
13999;SDS011;7075;53.574;10.054;2022-09-03T17:59:56;2.75;;;1.38;;
13999;SDS011;7075;53.574;10.054;2022-09-03T18:02:44;1.30;;;1.10;;
13999;SDS011;7075;53.574;10.054;2022-09-03T18:05:47;4.05;;;1.50;;
13999;SDS011;7075;53.574;10.054;2022-09-03T18:08:25;2.75;;;1.20;;
13999;SDS011;7075;53.574;10.054;2022-09-03T18:11:19;3.78;;;1.65;;
13999;SDS011;7075;53.574;10.054;2022-09-03T18:14:06;5.47;;;1.70;;
13999;SDS011;7075;53.574;10.054;2022-09-03T18:16:34;2.25;;;1.20;;
13999;SDS011;7075;53.574;10.054;2022-09-03T18:19:16;9.15;;;1.40;;
13999;SDS011;7075;53.574;10.054;2022-09-03T18:22:17;3.30;;;1.52;;
13999;SDS011;7075;53.574;10.054;2022-09-03T18:25:05;4.32;;;1.30;;
13999;SDS011;7075;53.574;10.054;2022-09-03T18:27:56;4.40;;;1.60;;
13999;SDS011;7075;53.574;10.054;2022-09-03T18:30:44;2.95;;;1.65;;
13999;SDS011;7075;53.574;10.054;2022-09-03T18:33:28;3.30;;;1.30;;
13999;SDS011;7075;53.574;10.054;2022-09-03T18:36:12;2.28;;;1.40;;
13999;SDS011;7075;53.574;10.054;2022-09-03T18:54:43;3.35;;;1.45;;
13999;SDS011;7075;53.574;10.054;2022-09-03T18:57:30;3.45;;;1.35;;
13999;SDS011;7075;53.574;10.054;2022-09-03T19:00:20;3.15;;;1.30;;
13999;SDS011;7075;53.574;10.054;2022-09-03T19:09:14;2.83;;;1.20;;
13999;SDS011;7075;53.574;10.054;2022-09-03T19:15:40;3.38;;;1.65;;
13999;SDS011;7075;53.574;10.054;2022-09-03T19:21:32;2.67;;;1.60;;
13999;SDS011;7075;53.574;10.054;2022-09-03T19:24:21;3.77;;;1.50;;
13999;SDS011;7075;53.574;10.054;2022-09-03T19:42:50;5.65;;;1.50;;
13999;SDS011;7075;53.574;10.054;2022-09-03T19:55:20;3.25;;;1.30;;
13999;SDS011;7075;53.574;10.054;2022-09-03T19:58:08;2.78;;;1.75;;
13999;SDS011;7075;53.574;10.054;2022-09-03T20:00:55;3.22;;;1.40;;
13999;SDS011;7075;53.574;10.054;2022-09-03T20:03:39;2.63;;;1.30;;
13999;SDS011;7075;53.574;10.054;2022-09-03T20:06:24;3.17;;;1.30;;
13999;SDS011;7075;53.574;10.054;2022-09-03T20:09:08;3.13;;;1.43;;
13999;SDS011;7075;53.574;10.054;2022-09-03T20:11:53;3.00;;;1.40;;
13999;SDS011;7075;53.574;10.054;2022-09-03T20:14:21;2.28;;;1.67;;
13999;SDS011;7075;53.574;10.054;2022-09-03T20:16:53;3.50;;;1.90;;
13999;SDS011;7075;53.574;10.054;2022-09-03T20:28:57;5.22;;;3.10;;
13999;SDS011;7075;53.574;10.054;2022-09-03T20:36:33;6.73;;;3.00;;
13999;SDS011;7075;53.574;10.054;2022-09-03T20:44:26;5.82;;;2.75;;
13999;SDS011;7075;53.574;10.054;2022-09-03T20:49:52;5.50;;;2.30;;
13999;SDS011;7075;53.574;10.054;2022-09-03T20:55:42;2.67;;;1.55;;
13999;SDS011;7075;53.574;10.054;2022-09-03T20:58:20;1.30;;;1.10;;
13999;SDS011;7075;53.574;10.054;2022-09-03T21:01:03;4.45;;;2.10;;
13999;SDS011;7075;53.574;10.054;2022-09-03T21:03:35;3.08;;;1.20;;
13999;SDS011;7075;53.574;10.054;2022-09-03T21:11:27;1.70;;;1.20;;
13999;SDS011;7075;53.574;10.054;2022-09-03T21:14:00;4.70;;;1.27;;
13999;SDS011;7075;53.574;10.054;2022-09-03T21:16:45;1.85;;;1.17;;
13999;SDS011;7075;53.574;10.054;2022-09-03T21:24:53;2.05;;;0.80;;
13999;SDS011;7075;53.574;10.054;2022-09-03T21:27:24;1.75;;;1.00;;
13999;SDS011;7075;53.574;10.054;2022-09-03T21:29:58;1.67;;;0.90;;
13999;SDS011;7075;53.574;10.054;2022-09-03T21:32:32;1.95;;;1.08;;
13999;SDS011;7075;53.574;10.054;2022-09-03T21:38:03;2.53;;;1.02;;
13999;SDS011;7075;53.574;10.054;2022-09-03T21:40:31;2.10;;;0.95;;
13999;SDS011;7075;53.574;10.054;2022-09-03T21:43:02;3.53;;;1.20;;
13999;SDS011;7075;53.574;10.054;2022-09-03T21:48:18;1.23;;;0.80;;
13999;SDS011;7075;53.574;10.054;2022-09-03T21:50:53;1.73;;;1.10;;
13999;SDS011;7075;53.574;10.054;2022-09-03T21:53:29;1.05;;;0.93;;
13999;SDS011;7075;53.574;10.054;2022-09-03T21:56:07;3.55;;;0.90;;
13999;SDS011;7075;53.574;10.054;2022-09-03T22:01:12;2.60;;;0.82;;